createdAt,value
2023-03-06T00:01:05.692Z,97137.66
2023-03-06T00:03:36.234Z,97138.29
2023-03-06T00:06:06.217Z,97139.52
2023-03-06T00:08:36.575Z,97138.64
2023-03-06T00:11:06.164Z,97140.98
2023-03-06T00:13:35.927Z,97141.46
2023-03-06T00:16:07.547Z,97139.52
2023-03-06T00:18:37.517Z,97137.25
2023-03-06T00:21:09.181Z,97138.70
2023-03-06T00:23:38.316Z,97135.64
2023-03-06T00:26:09.617Z,97132.41
2023-03-06T00:28:45.368Z,97134.23
2023-03-06T00:31:15.897Z,97131.79
2023-03-06T00:33:45.967Z,97131.89
2023-03-06T00:36:15.666Z,97132.13
2023-03-06T00:38:44.809Z,97130.36
2023-03-06T00:41:14.368Z,97129.85
2023-03-06T00:43:43.495Z,97133.41
2023-03-06T00:46:13.629Z,97129.81
2023-03-06T00:48:44.540Z,97127.95
2023-03-06T00:51:14.728Z,97130.75
2023-03-06T00:53:46.774Z,97130.91
2023-03-06T00:56:18.923Z,97133.10
2023-03-06T00:58:50.215Z,97132.05
2023-03-06T01:01:20.832Z,97134.27
2023-03-06T01:03:49.883Z,97135.69
2023-03-06T01:06:20.201Z,97134.41
2023-03-06T01:08:50.225Z,97133.81
2023-03-06T01:11:21.591Z,97136.27
2023-03-06T01:13:52.280Z,97139.09
2023-03-06T01:16:23.625Z,97140.05
2023-03-06T01:18:52.792Z,97144.54
2023-03-06T01:21:22.457Z,97139.77
2023-03-06T01:23:52.818Z,97145.46
2023-03-06T01:26:21.974Z,97144.33
2023-03-06T01:28:52.162Z,97143.75
2023-03-06T01:31:21.998Z,97143.80
2023-03-06T01:33:51.149Z,97143.20
2023-03-06T01:36:20.550Z,97143.29
2023-03-06T01:38:50.098Z,97139.45
2023-03-06T01:41:21.525Z,97140.86
2023-03-06T01:43:51.296Z,97136.79
2023-03-06T01:46:42.711Z,97137.65
2023-03-06T01:49:31.155Z,97135.15
2023-03-06T01:52:15.031Z,97136.50
2023-03-06T01:55:00.187Z,97133.56
2023-03-06T01:57:41.756Z,97132.40
2023-03-06T02:00:16.938Z,97133.83
2023-03-06T02:02:53.266Z,97133.90
2023-03-06T02:05:24.066Z,97139.05
2023-03-06T02:07:55.068Z,97139.94
2023-03-06T02:10:25.773Z,97142.41
2023-03-06T02:12:55.028Z,97143.77
2023-03-06T02:15:28.018Z,97146.29
2023-03-06T02:18:00.628Z,97146.84
2023-03-06T02:20:37.736Z,97148.29
2023-03-06T02:23:17.428Z,97147.80
2023-03-06T02:25:50.376Z,97144.82
2023-03-06T02:28:24.299Z,97148.52
2023-03-06T02:30:57.153Z,97147.13
2023-03-06T02:33:29.790Z,97147.23
2023-03-06T02:36:01.978Z,97147.50
2023-03-06T02:38:41.307Z,97148.65
2023-03-06T02:41:10.887Z,97148.98
2023-03-06T02:43:45.650Z,97153.34
2023-03-06T02:46:16.184Z,97156.30
2023-03-06T02:48:46.395Z,97152.78
2023-03-06T02:51:15.724Z,97145.48
2023-03-06T02:53:45.974Z,97146.14
2023-03-06T02:56:16.573Z,97148.89
2023-03-06T02:58:46.935Z,97149.38
2023-03-06T03:01:16.762Z,97151.59
2023-03-06T03:03:45.878Z,97148.59
2023-03-06T03:06:17.054Z,97152.28
2023-03-06T03:08:49.032Z,97155.65
2023-03-06T03:11:18.777Z,97157.54
2023-03-06T03:13:48.839Z,97161.23
2023-03-06T03:16:24.202Z,97159.71
2023-03-06T03:18:53.294Z,97157.73
2023-03-06T03:21:24.909Z,97151.76
2023-03-06T03:23:56.523Z,97150.61
2023-03-06T03:26:27.544Z,97148.61
2023-03-06T03:29:14.003Z,97150.39
2023-03-06T03:31:43.510Z,97152.14
2023-03-06T03:34:13.044Z,97148.42
2023-03-06T03:36:43.954Z,97152.35
2023-03-06T03:39:14.763Z,97156.87
2023-03-06T03:41:44.739Z,97158.70
2023-03-06T03:44:14.651Z,97163.21
2023-03-06T03:46:45.230Z,97160.14
2023-03-06T03:49:19.398Z,97159.43
2023-03-06T03:51:49.735Z,97157.89
2023-03-06T03:54:21.733Z,97160.01
2023-03-06T03:56:52.088Z,97160.67
2023-03-06T03:59:26.863Z,97162.15
2023-03-06T04:02:17.594Z,97162.09
2023-03-06T04:04:54.195Z,97163.83
2023-03-06T04:07:23.483Z,97162.48
2023-03-06T04:09:56.017Z,97169.27
2023-03-06T04:12:26.238Z,97170.50
2023-03-06T04:14:55.748Z,97173.83
2023-03-06T04:17:24.902Z,97179.66
2023-03-06T04:19:56.173Z,97176.89
2023-03-06T04:22:25.872Z,97177.32
2023-03-06T04:24:56.656Z,97178.05
2023-03-06T04:27:29.921Z,97183.36
2023-03-06T04:30:00.359Z,97184.65
2023-03-06T04:32:29.798Z,97180.79
2023-03-06T04:34:59.530Z,97183.93
2023-03-06T04:37:31.479Z,97180.07
2023-03-06T04:40:01.742Z,97182.86
2023-03-06T04:42:32.167Z,97184.69
2023-03-06T04:45:02.495Z,97188.38
2023-03-06T04:47:33.306Z,97183.42
2023-03-06T04:50:30.577Z,97182.04
2023-03-06T04:52:57.697Z,97181.80
2023-03-06T04:55:31.016Z,97178.54
2023-03-06T04:58:00.884Z,97177.81
2023-03-06T05:00:33.772Z,97181.09
2023-03-06T05:03:03.960Z,97181.92
2023-03-06T05:05:34.085Z,97177.92
2023-03-06T05:08:04.012Z,97184.77
2023-03-06T05:10:34.005Z,97190.15
2023-03-06T05:13:03.585Z,97187.29
2023-03-06T05:15:32.742Z,97192.73
2023-03-06T05:18:02.508Z,97199.23
2023-03-06T05:20:32.572Z,97198.89
2023-03-06T05:23:01.783Z,97200.55
2023-03-06T05:25:30.939Z,97204.54
2023-03-06T05:28:00.099Z,97205.73
2023-03-06T05:30:29.881Z,97210.41
2023-03-06T05:33:02.180Z,97213.17
2023-03-06T05:35:32.207Z,97215.66
2023-03-06T05:38:02.186Z,97210.64
2023-03-06T05:40:31.618Z,97213.94
2023-03-06T05:43:01.694Z,97215.98
2023-03-06T05:45:32.510Z,97215.40
2023-03-06T05:48:01.853Z,97218.32
2023-03-06T05:50:32.524Z,97217.66
2023-03-06T05:53:01.948Z,97217.30
2023-03-06T05:55:31.851Z,97219.67
2023-03-06T05:58:00.922Z,97225.55
2023-03-06T06:00:30.249Z,97226.81
2023-03-06T06:03:02.712Z,97225.44
2023-03-06T06:05:32.225Z,97225.85
2023-03-06T06:08:01.399Z,97228.58
2023-03-06T06:10:30.589Z,97224.95
2023-03-06T06:12:59.591Z,97228.60
2023-03-06T06:15:29.352Z,97233.23
2023-03-06T06:17:59.034Z,97231.95
2023-03-06T06:20:29.321Z,97231.63
2023-03-06T06:22:59.371Z,97228.95
2023-03-06T06:25:28.374Z,97230.92
2023-03-06T06:27:58.400Z,97231.73
2023-03-06T06:30:27.551Z,97229.56
2023-03-06T06:32:57.441Z,97237.79
2023-03-06T06:35:27.700Z,97241.06
2023-03-06T06:37:56.828Z,97233.74
2023-03-06T06:40:28.186Z,97228.86
2023-03-06T06:42:58.023Z,97229.15
2023-03-06T06:45:27.586Z,97238.73
2023-03-06T06:47:57.901Z,97238.05
2023-03-06T06:50:27.767Z,97229.80
2023-03-06T06:52:57.029Z,97229.64
2023-03-06T06:55:27.576Z,97233.70
2023-03-06T06:57:56.687Z,97238.16
2023-03-06T07:00:26.842Z,97238.84
2023-03-06T07:02:56.484Z,97234.73
2023-03-06T07:05:26.745Z,97232.68
2023-03-06T07:07:56.355Z,97228.30
2023-03-06T07:10:28.698Z,97229.02
2023-03-06T07:12:58.497Z,97232.20
2023-03-06T07:15:30.226Z,97238.29
2023-03-06T07:18:01.740Z,97235.38
2023-03-06T07:20:32.298Z,97237.77
2023-03-06T07:23:02.464Z,97237.61
2023-03-06T07:25:33.157Z,97240.17
2023-03-06T07:28:03.610Z,97242.32
2023-03-06T07:30:32.953Z,97238.71
2023-03-06T07:33:02.204Z,97241.52
2023-03-06T07:35:31.870Z,97244.16
2023-03-06T07:38:02.192Z,97240.20
2023-03-06T07:40:31.545Z,97243.98
2023-03-06T07:43:16.815Z,97246.79
2023-03-06T07:46:00.699Z,97245.33
2023-03-06T07:48:31.778Z,97245.22
2023-03-06T07:51:04.793Z,97237.81
2023-03-06T07:53:37.361Z,97237.39
2023-03-06T07:56:11.650Z,97239.48
2023-03-06T07:58:44.408Z,97242.24
2023-03-06T08:01:16.966Z,97239.20
2023-03-06T08:03:47.708Z,97236.20
2023-03-06T08:06:30.195Z,97237.75
2023-03-06T08:09:00.118Z,97244.77
2023-03-06T08:11:31.307Z,97247.39
2023-03-06T08:14:01.641Z,97246.46
2023-03-06T08:16:32.288Z,97246.82
2023-03-06T08:19:04.497Z,97242.45
2023-03-06T08:21:33.926Z,97243.52
2023-03-06T08:24:03.987Z,97246.71
2023-03-06T08:26:33.733Z,97247.00
2023-03-06T08:29:03.328Z,97252.94
2023-03-06T08:31:45.248Z,97248.05
2023-03-06T08:34:20.335Z,97248.33
2023-03-06T08:36:51.144Z,97249.06
2023-03-06T08:39:21.745Z,97247.59
2023-03-06T08:41:51.804Z,97250.08
2023-03-06T08:44:21.474Z,97253.94
2023-03-06T08:46:53.642Z,97248.80
2023-03-06T08:49:23.681Z,97251.61
2023-03-06T08:51:55.279Z,97248.80
2023-03-06T08:54:25.221Z,97253.27
2023-03-06T08:56:55.281Z,97254.95
2023-03-06T08:59:28.277Z,97247.66
2023-03-06T09:01:57.410Z,97253.92
2023-03-06T09:04:31.750Z,97247.71
2023-03-06T09:07:01.746Z,97244.02
2023-03-06T09:09:31.419Z,97245.90
2023-03-06T09:12:01.029Z,97247.05
2023-03-06T09:14:33.107Z,97253.23
2023-03-06T09:17:02.753Z,97257.26
2023-03-06T09:19:31.917Z,97248.76
2023-03-06T09:22:01.656Z,97248.41
2023-03-06T09:24:31.428Z,97252.35
2023-03-06T09:27:03.144Z,97258.30
2023-03-06T09:29:33.221Z,97255.52
2023-03-06T09:32:02.531Z,97249.27
2023-03-06T09:34:32.332Z,97247.17
2023-03-06T09:37:05.237Z,97242.66
2023-03-06T09:39:35.292Z,97243.42
2023-03-06T09:42:08.477Z,97243.23
2023-03-06T09:44:41.531Z,97240.97
2023-03-06T09:47:40.068Z,97237.39
2023-03-06T09:50:27.706Z,97235.46
2023-03-06T09:53:04.797Z,97242.91
2023-03-06T09:55:38.646Z,97244.70
2023-03-06T09:58:26.333Z,97242.28
2023-03-06T10:01:17.660Z,97243.77
2023-03-06T10:03:59.101Z,97244.20
2023-03-06T10:06:40.497Z,97243.73
2023-03-06T10:09:34.405Z,97240.44
2023-03-06T10:12:14.423Z,97235.50
2023-03-06T10:14:49.243Z,97239.30
2023-03-06T10:17:23.166Z,97240.17
2023-03-06T10:19:53.252Z,97238.13
2023-03-06T10:22:40.291Z,97234.16
2023-03-06T10:25:31.426Z,97235.13
2023-03-06T10:28:12.096Z,97234.16
2023-03-06T10:30:43.270Z,97235.63
2023-03-06T10:33:39.564Z,97236.23
2023-03-06T10:36:18.465Z,97233.06
2023-03-06T10:38:49.221Z,97228.41
2023-03-06T10:41:25.618Z,97226.77
2023-03-06T10:44:00.800Z,97221.85
2023-03-06T10:46:36.975Z,97218.48
2023-03-06T10:49:23.125Z,97211.30
2023-03-06T10:52:14.614Z,97205.59
2023-03-06T10:54:45.249Z,97199.45
2023-03-06T10:57:30.513Z,97198.18
2023-03-06T11:00:17.679Z,97198.34
2023-03-06T11:03:04.817Z,97189.38
2023-03-06T11:05:34.968Z,97184.79
2023-03-06T11:08:04.379Z,97178.31
2023-03-06T11:10:35.883Z,97178.73
2023-03-06T11:13:22.850Z,97180.16
2023-03-06T11:16:03.711Z,97178.20
2023-03-06T11:18:43.406Z,97177.46
2023-03-06T11:21:36.292Z,97175.43
2023-03-06T11:24:20.455Z,97169.31
2023-03-06T11:27:03.895Z,97168.73
2023-03-06T11:29:44.920Z,97166.80
2023-03-06T11:32:23.199Z,97162.61
2023-03-06T11:34:59.553Z,97161.55
2023-03-06T11:37:47.852Z,97158.37
2023-03-06T11:40:23.666Z,97151.08
2023-03-06T11:43:30.674Z,97146.05
2023-03-06T11:46:23.336Z,97146.74
2023-03-06T11:49:19.050Z,97138.09
2023-03-06T11:51:55.873Z,97133.89
2023-03-06T11:54:25.436Z,97128.65
2023-03-06T11:57:05.679Z,97127.71
2023-03-06T12:00:18.864Z,97123.97
2023-03-06T12:03:20.706Z,97125.19
2023-03-06T12:06:01.957Z,97117.73
2023-03-06T12:08:31.884Z,97116.38
2023-03-06T12:11:21.548Z,97115.31
2023-03-06T12:14:16.498Z,97111.85
2023-03-06T12:17:07.373Z,97109.80
2023-03-06T12:20:05.480Z,97107.33
2023-03-06T12:22:58.227Z,97109.14
2023-03-06T12:25:40.685Z,97106.16
2023-03-06T12:28:38.127Z,97102.79
2023-03-06T12:31:19.874Z,97097.73
2023-03-06T12:34:23.741Z,97088.83
2023-03-06T12:37:12.924Z,97088.13
2023-03-06T12:39:58.506Z,97084.36
2023-03-06T12:43:06.584Z,97083.11
2023-03-06T12:49:02.794Z,97089.56
2023-03-06T12:51:33.540Z,97082.13
2023-03-06T12:54:04.954Z,97083.73
2023-03-06T12:56:36.604Z,97079.36
2023-03-06T12:59:06.376Z,97075.46
2023-03-06T13:01:58.233Z,97073.09
2023-03-06T13:04:51.770Z,97074.44
2023-03-06T13:07:33.611Z,97066.85
2023-03-06T13:10:06.445Z,97062.19
2023-03-06T13:13:01.139Z,97057.58
2023-03-06T13:16:05.428Z,97052.94
2023-03-06T13:18:35.483Z,97042.09
2023-03-06T13:21:05.534Z,97036.55
2023-03-06T13:23:39.325Z,97033.94
2023-03-06T13:26:10.973Z,97032.41
2023-03-06T13:28:46.719Z,97033.79
2023-03-06T13:31:40.591Z,97033.46
2023-03-06T13:34:32.060Z,97035.38
2023-03-06T13:37:24.006Z,97033.33
2023-03-06T13:39:53.055Z,97036.83
2023-03-06T13:42:40.256Z,97035.48
2023-03-06T13:45:19.779Z,97039.96
2023-03-06T13:48:21.124Z,97037.31
2023-03-06T13:50:50.852Z,97036.54
2023-03-06T13:53:53.773Z,97030.74
2023-03-06T13:56:38.377Z,97028.20
2023-03-06T13:59:14.224Z,97026.50
2023-03-06T14:01:53.873Z,97022.03
2023-03-06T14:04:55.452Z,97019.35
2023-03-06T14:07:44.205Z,97014.65
2023-03-06T14:10:20.639Z,97011.37
2023-03-06T14:12:49.776Z,97009.06
2023-03-06T14:15:24.865Z,97011.42
2023-03-06T14:18:08.297Z,97010.26
2023-03-06T14:20:45.150Z,97006.95
2023-03-06T14:23:21.583Z,97004.77
2023-03-06T14:26:23.820Z,97004.58
2023-03-06T14:28:52.969Z,97000.40
2023-03-06T14:31:38.801Z,96997.36
2023-03-06T14:34:17.303Z,96994.71
2023-03-06T14:36:49.139Z,96990.80
2023-03-06T14:39:21.667Z,96993.81
2023-03-06T14:41:51.144Z,96997.73
2023-03-06T14:44:22.336Z,96999.42
2023-03-06T14:46:55.695Z,96997.09
2023-03-06T14:49:27.014Z,96994.60
2023-03-06T14:52:02.311Z,96995.91
2023-03-06T14:54:39.773Z,96994.61
2023-03-06T14:57:15.817Z,96990.66
2023-03-06T14:59:55.366Z,96988.73
2023-03-06T15:02:33.203Z,96994.98
2023-03-06T15:05:14.003Z,96997.47
2023-03-06T15:07:45.194Z,96991.80
2023-03-06T15:10:27.304Z,96988.02
2023-03-06T15:13:23.076Z,96985.24
2023-03-06T15:16:05.667Z,96984.85
2023-03-06T15:18:39.526Z,96983.59
2023-03-06T15:21:21.994Z,96982.79
2023-03-06T15:23:57.315Z,96979.16
2023-03-06T15:26:37.242Z,96982.95
2023-03-06T15:29:11.049Z,96980.33
2023-03-06T15:31:46.619Z,96983.16
2023-03-06T15:34:23.909Z,96982.23
2023-03-06T15:36:58.223Z,96979.83
2023-03-06T15:39:42.105Z,96978.58
2023-03-06T15:42:37.531Z,96981.65
2023-03-06T15:45:20.013Z,96984.65
2023-03-06T15:47:52.445Z,96988.74
2023-03-06T15:50:22.638Z,96992.35
2023-03-06T15:52:53.216Z,96991.61
2023-03-06T15:55:34.413Z,96989.20
2023-03-06T15:58:05.137Z,96988.55
2023-03-06T16:00:38.790Z,96987.51
2023-03-06T16:03:11.577Z,96989.96
2023-03-06T16:05:41.464Z,96992.33
2023-03-06T16:08:16.084Z,96990.11
2023-03-06T16:10:47.294Z,96990.07
2023-03-06T16:13:23.155Z,96988.88
2023-03-06T16:15:53.414Z,96985.58
2023-03-06T16:18:23.018Z,96988.94
2023-03-06T16:20:52.269Z,96989.08
2023-03-06T16:23:22.504Z,96989.63
2023-03-06T16:25:53.199Z,96989.60
2023-03-06T16:28:22.525Z,96994.38
2023-03-06T16:30:52.948Z,96988.70
2023-03-06T16:33:22.506Z,96990.41
2023-03-06T16:35:51.977Z,96987.52
2023-03-06T16:38:21.792Z,96987.58
2023-03-06T16:40:51.087Z,96989.21
2023-03-06T16:43:20.322Z,96986.65
2023-03-06T16:45:49.534Z,96987.11
2023-03-06T16:48:18.877Z,96984.61
2023-03-06T16:50:49.460Z,96983.45
2023-03-06T16:53:20.935Z,96987.48
2023-03-06T16:55:50.972Z,96984.14
2023-03-06T16:58:21.912Z,96985.41
2023-03-06T17:00:51.237Z,96984.98
2023-03-06T17:03:21.023Z,96983.40
2023-03-06T17:05:51.144Z,96981.99
2023-03-06T17:08:20.906Z,96981.18
2023-03-06T17:10:51.178Z,96981.01
2023-03-06T17:13:20.797Z,96979.42
2023-03-06T17:15:57.424Z,96974.83
2023-03-06T17:18:28.419Z,96977.00
2023-03-06T17:21:02.677Z,96974.77
2023-03-06T17:23:32.442Z,96971.79
2023-03-06T17:26:09.226Z,96970.02
2023-03-06T17:28:39.995Z,96968.27
2023-03-06T17:31:27.261Z,96965.98
2023-03-06T17:34:01.016Z,96964.45
2023-03-06T17:36:34.518Z,96963.27
2023-03-06T17:39:26.681Z,96959.30
2023-03-06T17:42:12.603Z,96952.92
2023-03-06T17:44:45.114Z,96951.41
2023-03-06T17:47:36.248Z,96953.41
2023-03-06T17:50:06.270Z,96952.36
2023-03-06T17:52:58.543Z,96950.95
2023-03-06T17:55:39.516Z,96950.66
2023-03-06T17:58:18.280Z,96947.69
2023-03-06T18:00:47.614Z,96948.98
2023-03-06T18:03:17.208Z,96947.84
2023-03-06T18:06:08.673Z,96949.58
2023-03-06T18:08:41.549Z,96947.40
2023-03-06T18:11:12.171Z,96941.31
2023-03-06T18:13:44.848Z,96940.94
2023-03-06T18:16:17.739Z,96939.73
2023-03-06T18:18:48.158Z,96939.41
2023-03-06T18:21:18.233Z,96943.20
2023-03-06T18:23:47.681Z,96946.93
2023-03-06T18:26:19.331Z,96944.76
2023-03-06T18:28:52.782Z,96945.32
2023-03-06T18:31:29.296Z,96942.10
2023-03-06T18:34:01.003Z,96938.84
2023-03-06T18:36:33.547Z,96943.24
2023-03-06T18:39:07.658Z,96940.40
2023-03-06T18:41:38.603Z,96940.98
2023-03-06T18:44:13.826Z,96937.05
2023-03-06T18:46:44.119Z,96933.48
2023-03-06T18:49:15.732Z,96935.14
2023-03-06T18:51:47.765Z,96933.13
2023-03-06T18:54:17.106Z,96928.48
2023-03-06T18:56:46.769Z,96932.33
2023-03-06T18:59:18.942Z,96926.04
2023-03-06T19:01:49.101Z,96922.69
2023-03-06T19:04:19.839Z,96923.86
2023-03-06T19:06:48.821Z,96922.69
2023-03-06T19:09:19.096Z,96916.95
2023-03-06T19:11:49.532Z,96918.06
2023-03-06T19:14:25.905Z,96914.42
2023-03-06T19:16:55.457Z,96907.98
2023-03-06T19:19:29.763Z,96904.42
2023-03-06T19:21:59.492Z,96904.92
2023-03-06T19:24:29.966Z,96913.17
2023-03-06T19:26:59.240Z,96909.81
2023-03-06T19:29:31.250Z,96914.00
2023-03-06T19:32:01.558Z,96905.95
2023-03-06T19:34:32.088Z,96905.94
2023-03-06T19:37:02.580Z,96902.88
2023-03-06T19:39:35.954Z,96904.19
2023-03-06T19:42:07.346Z,96905.10
2023-03-06T19:44:41.361Z,96902.97
2023-03-06T19:50:15.433Z,96885.56
2023-03-06T19:52:45.467Z,96885.33
2023-03-06T19:55:15.165Z,96880.81
2023-03-06T19:57:46.143Z,96885.08
2023-03-06T20:00:16.572Z,96882.96
2023-03-06T20:02:45.881Z,96885.79
2023-03-06T20:05:16.788Z,96878.74
2023-03-06T20:07:46.904Z,96877.78
2023-03-06T20:10:17.522Z,96874.58
2023-03-06T20:12:50.997Z,96868.69
2023-03-06T20:15:22.757Z,96858.72
2023-03-06T20:17:52.698Z,96859.02
2023-03-06T20:20:22.850Z,96857.02
2023-03-06T20:22:52.918Z,96851.69
2023-03-06T20:25:25.311Z,96851.36
2023-03-06T20:27:54.468Z,96846.20
2023-03-06T20:30:24.314Z,96847.55
2023-03-06T20:32:58.969Z,96849.45
2023-03-06T20:35:28.355Z,96848.25
2023-03-06T20:37:58.521Z,96844.36
2023-03-06T20:40:31.433Z,96841.45
2023-03-06T20:43:00.983Z,96837.16
2023-03-06T20:45:31.081Z,96836.95
2023-03-06T20:48:07.855Z,96834.72
2023-03-06T20:50:37.671Z,96827.35
2023-03-06T20:53:07.396Z,96830.29
2023-03-06T20:55:40.067Z,96827.17
2023-03-06T20:58:16.150Z,96832.15
2023-03-06T21:00:46.857Z,96828.40
2023-03-06T21:03:18.605Z,96832.17
2023-03-06T21:05:54.530Z,96831.30
2023-03-06T21:08:24.407Z,96824.48
2023-03-06T21:10:55.388Z,96828.93
2023-03-06T21:13:25.080Z,96829.84
2023-03-06T21:15:54.850Z,96830.45
2023-03-06T21:18:26.219Z,96824.81
2023-03-06T21:21:06.425Z,96829.08
2023-03-06T21:23:39.924Z,96828.10
2023-03-06T21:26:13.437Z,96829.80
2023-03-06T21:28:54.808Z,96823.38
2023-03-06T21:31:24.383Z,96829.93
2023-03-06T21:33:54.634Z,96822.84
2023-03-06T21:36:27.565Z,96830.98
2023-03-06T21:38:57.059Z,96837.64
2023-03-06T21:41:29.166Z,96830.55
2023-03-06T21:44:02.541Z,96829.84
2023-03-06T21:46:33.120Z,96831.46
2023-03-06T21:49:04.592Z,96825.05
2023-03-06T21:51:34.708Z,96818.60
2023-03-06T21:54:10.194Z,96819.02
2023-03-06T21:56:41.959Z,96818.34
2023-03-06T21:59:13.362Z,96811.55
2023-03-06T22:01:43.735Z,96809.51
2023-03-06T22:04:16.518Z,96805.80
2023-03-06T22:06:48.667Z,96804.59
2023-03-06T22:09:20.401Z,96803.61
2023-03-06T22:11:50.430Z,96808.73
2023-03-06T22:14:20.901Z,96814.45
2023-03-06T22:16:51.779Z,96812.71
2023-03-06T22:19:21.644Z,96809.35
2023-03-06T22:21:51.607Z,96801.09
2023-03-06T22:24:20.958Z,96793.23
2023-03-06T22:26:51.035Z,96792.57
2023-03-06T22:29:21.355Z,96784.08
2023-03-06T22:31:52.555Z,96787.59
2023-03-06T22:34:28.189Z,96791.46
2023-03-06T22:37:00.362Z,96791.67
2023-03-06T22:39:32.289Z,96793.87
2023-03-06T22:42:01.433Z,96797.98
2023-03-06T22:44:31.549Z,96804.24
2023-03-06T22:47:03.142Z,96805.61
2023-03-06T22:49:33.558Z,96808.11
2023-03-06T22:52:03.672Z,96807.63
2023-03-06T22:54:33.418Z,96812.65
2023-03-06T22:57:05.068Z,96812.80
2023-03-06T22:59:34.160Z,96811.80
2023-03-06T23:02:04.301Z,96814.80
2023-03-06T23:04:33.340Z,96817.44
2023-03-06T23:07:02.519Z,96818.61
2023-03-06T23:09:33.535Z,96820.64
2023-03-06T23:12:21.894Z,96820.16
2023-03-06T23:15:10.606Z,96824.36
2023-03-06T23:18:00.104Z,96829.55
2023-03-06T23:20:47.619Z,96828.84
2023-03-06T23:23:37.888Z,96825.05
2023-03-06T23:26:08.633Z,96823.58
2023-03-06T23:28:38.176Z,96826.89
2023-03-06T23:31:14.187Z,96831.05
2023-03-06T23:33:45.352Z,96829.85
2023-03-06T23:36:18.283Z,96830.98
2023-03-06T23:38:49.195Z,96832.38
2023-03-06T23:41:21.376Z,96836.58
2023-03-06T23:43:54.932Z,96841.20
2023-03-06T23:46:24.608Z,96842.12
2023-03-06T23:48:55.459Z,96847.78
2023-03-06T23:51:24.698Z,96846.59
2023-03-06T23:53:57.347Z,96845.67
2023-03-06T23:56:28.872Z,96846.41
2023-03-06T23:58:59.504Z,96849.20
